createdAt,value
2018-05-23T00:00:54.897Z,40.90
2018-05-23T00:01:59.953Z,40.90
2018-05-23T00:03:04.823Z,40.90
2018-05-23T00:04:09.660Z,40.90
2018-05-23T00:05:14.460Z,40.90
2018-05-23T00:06:19.365Z,40.80
2018-05-23T00:07:24.443Z,40.90
2018-05-23T00:08:29.502Z,40.90
2018-05-23T00:09:34.382Z,40.90
2018-05-23T00:10:39.276Z,40.90
2018-05-23T00:11:44.170Z,40.90
2018-05-23T00:12:49.012Z,40.90
2018-05-23T00:13:54.029Z,40.90
2018-05-23T00:14:58.761Z,40.90
2018-05-23T00:16:03.906Z,40.90
2018-05-23T00:17:08.768Z,40.90
2018-05-23T00:18:13.561Z,40.90
2018-05-23T00:19:18.556Z,40.90
2018-05-23T00:20:23.339Z,40.90
2018-05-23T00:21:28.381Z,40.90
2018-05-23T00:22:33.439Z,40.80
2018-05-23T00:23:38.463Z,40.90
2018-05-23T00:24:43.129Z,40.80
2018-05-23T00:25:47.926Z,40.80
2018-05-23T00:26:52.715Z,40.80
2018-05-23T00:27:57.509Z,40.80
2018-05-23T00:29:02.878Z,40.80
2018-05-23T00:30:07.811Z,40.80
2018-05-23T00:31:12.649Z,40.80
2018-05-23T00:32:17.786Z,40.80
2018-05-23T00:33:22.410Z,40.80
2018-05-23T00:34:27.449Z,40.80
2018-05-23T00:35:32.344Z,40.80
2018-05-23T00:36:37.066Z,40.80
2018-05-23T00:37:41.974Z,40.80
2018-05-23T00:38:46.995Z,40.80
2018-05-23T00:39:51.985Z,40.80
2018-05-23T00:40:57.044Z,40.70
2018-05-23T00:42:01.826Z,40.80
2018-05-23T00:43:06.746Z,40.70
2018-05-23T00:44:11.826Z,40.70
2018-05-23T00:45:16.922Z,40.80
2018-05-23T00:46:21.865Z,40.70
2018-05-23T00:47:26.819Z,40.80
2018-05-23T00:48:31.909Z,40.80
2018-05-23T00:49:36.722Z,40.70
2018-05-23T00:50:41.606Z,40.70
2018-05-23T00:51:46.518Z,40.70
2018-05-23T00:52:51.461Z,40.60
2018-05-23T00:53:56.522Z,40.70
2018-05-23T00:55:01.405Z,40.60
2018-05-23T00:56:06.156Z,40.70
2018-05-23T00:57:11.010Z,40.70
2018-05-23T00:58:15.930Z,40.70
2018-05-23T00:59:21.343Z,40.60
2018-05-23T01:00:26.405Z,40.70
2018-05-23T01:01:31.113Z,40.50
2018-05-23T01:02:36.023Z,40.60
2018-05-23T01:03:40.816Z,40.60
2018-05-23T01:04:45.699Z,40.50
2018-05-23T01:05:50.746Z,40.50
2018-05-23T01:06:55.769Z,40.60
2018-05-23T01:08:00.857Z,40.50
2018-05-23T01:09:05.795Z,40.60
2018-05-23T01:10:10.643Z,40.60
2018-05-23T01:11:15.647Z,40.50
2018-05-23T01:12:20.525Z,40.50
2018-05-23T01:13:25.506Z,40.60
2018-05-23T01:14:30.602Z,40.60
2018-05-23T01:15:35.667Z,40.60
2018-05-23T01:16:40.648Z,40.60
2018-05-23T01:17:45.451Z,41.20
2018-05-23T01:18:50.481Z,40.50
2018-05-23T01:19:56.049Z,40.50
2018-05-23T01:21:01.101Z,40.60
2018-05-23T01:22:05.952Z,40.50
2018-05-23T01:23:10.907Z,40.50
2018-05-23T01:24:15.784Z,40.50
2018-05-23T01:25:20.589Z,40.50
2018-05-23T01:26:25.585Z,40.50
2018-05-23T01:27:30.517Z,40.50
2018-05-23T01:28:35.315Z,40.50
2018-05-23T01:29:40.319Z,40.40
2018-05-23T01:30:45.245Z,40.50
2018-05-23T01:31:50.066Z,40.50
2018-05-23T01:32:54.996Z,40.50
2018-05-23T01:34:00.011Z,40.50
2018-05-23T01:35:05.026Z,40.40
2018-05-23T01:36:10.137Z,40.50
2018-05-23T01:37:14.905Z,40.50
2018-05-23T01:38:19.831Z,40.40
2018-05-23T01:39:24.912Z,40.50
2018-05-23T01:40:29.745Z,40.40
2018-05-23T01:41:34.616Z,40.40
2018-05-23T01:42:39.404Z,40.50
2018-05-23T01:43:44.245Z,40.40
2018-05-23T01:44:49.682Z,40.50
2018-05-23T01:45:54.802Z,40.40
2018-05-23T01:46:59.949Z,40.40
2018-05-23T01:48:04.863Z,40.50
2018-05-23T01:49:09.973Z,40.40
2018-05-23T01:50:14.957Z,40.40
2018-05-23T01:51:20.000Z,40.40
2018-05-23T01:52:25.023Z,40.40
2018-05-23T01:53:30.023Z,40.40
2018-05-23T01:54:34.919Z,40.40
2018-05-23T01:55:39.923Z,40.40
2018-05-23T01:56:44.857Z,40.50
2018-05-23T01:57:49.678Z,40.50
2018-05-23T01:58:54.784Z,40.40
2018-05-23T01:59:59.698Z,40.40
2018-05-23T02:01:05.367Z,40.40
2018-05-23T02:02:10.272Z,40.40
2018-05-23T02:03:15.035Z,40.50
2018-05-23T02:04:19.741Z,40.40
2018-05-23T02:05:24.380Z,40.50
2018-05-23T02:06:29.213Z,40.40
2018-05-23T02:07:34.285Z,40.40
2018-05-23T02:08:39.071Z,40.40
2018-05-23T02:09:43.864Z,40.40
2018-05-23T02:10:48.689Z,40.40
2018-05-23T02:11:53.602Z,40.40
2018-05-23T02:12:58.294Z,40.40
2018-05-23T02:14:03.298Z,40.40
2018-05-23T02:15:08.371Z,40.30
2018-05-23T02:16:13.187Z,40.40
2018-05-23T02:17:17.976Z,40.40
2018-05-23T02:18:22.639Z,40.30
2018-05-23T02:19:27.540Z,40.40
2018-05-23T02:20:32.384Z,40.40
2018-05-23T02:21:37.257Z,40.40
2018-05-23T02:22:42.105Z,40.40
2018-05-23T02:23:47.003Z,41.10
2018-05-23T02:24:52.022Z,40.40
2018-05-23T02:25:56.636Z,40.40
2018-05-23T02:27:01.521Z,40.40
2018-05-23T02:28:06.404Z,40.40
2018-05-23T02:29:11.316Z,40.40
2018-05-23T02:30:16.115Z,40.40
2018-05-23T02:31:21.102Z,40.40
2018-05-23T02:32:25.903Z,40.40
2018-05-23T02:33:30.765Z,40.30
2018-05-23T02:34:35.503Z,40.30
2018-05-23T02:35:40.530Z,40.30
2018-05-23T02:36:45.521Z,40.30
2018-05-23T02:37:50.458Z,40.30
2018-05-23T02:38:55.310Z,40.30
2018-05-23T02:40:00.228Z,40.30
2018-05-23T02:41:05.179Z,40.30
2018-05-23T02:42:10.030Z,40.30
2018-05-23T02:43:14.717Z,40.30
2018-05-23T02:44:19.501Z,40.30
2018-05-23T02:45:24.363Z,40.20
2018-05-23T02:46:29.298Z,40.30
2018-05-23T02:47:34.140Z,40.20
2018-05-23T02:48:38.777Z,40.30
2018-05-23T02:49:43.638Z,40.30
2018-05-23T02:50:48.348Z,40.80
2018-05-23T02:51:53.168Z,40.60
2018-05-23T02:52:58.207Z,40.20
2018-05-23T02:54:02.905Z,40.20
2018-05-23T02:55:07.840Z,40.20
2018-05-23T02:56:12.825Z,40.20
2018-05-23T02:57:17.635Z,40.20
2018-05-23T02:58:22.452Z,40.20
2018-05-23T02:59:27.500Z,40.20
2018-05-23T03:00:32.559Z,40.20
2018-05-23T03:01:37.219Z,40.20
2018-05-23T03:02:42.006Z,40.20
2018-05-23T03:03:46.816Z,40.10
2018-05-23T03:04:51.885Z,40.10
2018-05-23T03:05:56.732Z,40.10
2018-05-23T03:07:01.566Z,40.10
2018-05-23T03:08:06.454Z,40.10
2018-05-23T03:09:11.471Z,40.10
2018-05-23T03:10:16.392Z,40.20
2018-05-23T03:11:21.588Z,40.10
2018-05-23T03:12:26.423Z,40.20
2018-05-23T03:13:31.261Z,40.10
2018-05-23T03:14:36.057Z,40.10
2018-05-23T03:15:41.014Z,40.10
2018-05-23T03:16:45.628Z,40.10
2018-05-23T03:17:50.319Z,40.10
2018-05-23T03:18:55.364Z,40.00
2018-05-23T03:20:00.191Z,40.10
2018-05-23T03:21:05.250Z,40.10
2018-05-23T03:22:10.278Z,40.00
2018-05-23T03:23:15.668Z,40.00
2018-05-23T03:24:20.535Z,40.00
2018-05-23T03:25:25.625Z,40.00
2018-05-23T03:26:31.214Z,40.10
2018-05-23T03:27:35.868Z,40.10
2018-05-23T03:28:40.669Z,40.00
2018-05-23T03:29:45.597Z,40.00
2018-05-23T03:30:50.704Z,40.00
2018-05-23T03:31:55.339Z,40.00
2018-05-23T03:33:00.158Z,40.00
2018-05-23T03:34:04.989Z,40.00
2018-05-23T03:35:10.338Z,40.00
2018-05-23T03:36:15.115Z,40.00
2018-05-23T03:37:20.070Z,40.00
2018-05-23T03:38:24.928Z,40.00
2018-05-23T03:39:29.847Z,40.10
2018-05-23T03:40:35.184Z,40.00
2018-05-23T03:41:40.077Z,40.00
2018-05-23T03:42:45.054Z,40.00
2018-05-23T03:43:49.752Z,40.00
2018-05-23T03:44:54.548Z,40.00
2018-05-23T03:45:59.546Z,40.00
2018-05-23T03:47:04.341Z,40.00
2018-05-23T03:48:09.198Z,40.00
2018-05-23T03:49:13.842Z,40.00
2018-05-23T03:50:18.733Z,40.00
2018-05-23T03:51:23.448Z,39.90
2018-05-23T03:52:28.178Z,40.00
2018-05-23T03:53:33.080Z,40.00
2018-05-23T03:54:38.022Z,39.90
2018-05-23T03:55:42.953Z,39.90
2018-05-23T03:56:47.648Z,40.00
2018-05-23T03:57:52.555Z,40.60
2018-05-23T03:58:57.511Z,39.90
2018-05-23T04:00:02.172Z,39.90
2018-05-23T04:01:07.120Z,39.90
2018-05-23T04:02:11.993Z,39.90
2018-05-23T04:03:17.422Z,40.00
2018-05-23T04:04:22.323Z,40.00
2018-05-23T04:05:27.152Z,39.90
2018-05-23T04:06:32.118Z,39.90
2018-05-23T04:07:37.001Z,39.90
2018-05-23T04:08:41.800Z,39.90
2018-05-23T04:09:46.681Z,40.00
2018-05-23T04:10:51.721Z,40.00
2018-05-23T04:11:56.624Z,40.10
2018-05-23T04:13:01.667Z,39.90
2018-05-23T04:14:06.783Z,39.90
2018-05-23T04:15:11.686Z,39.90
2018-05-23T04:16:16.590Z,40.00
2018-05-23T04:17:21.523Z,39.90
2018-05-23T04:18:26.248Z,39.90
2018-05-23T04:19:31.148Z,40.00
2018-05-23T04:20:36.236Z,40.00
2018-05-23T04:21:41.074Z,40.00
2018-05-23T04:22:45.919Z,40.00
2018-05-23T04:23:50.650Z,40.00
2018-05-23T04:24:55.643Z,40.00
2018-05-23T04:26:00.546Z,40.00
2018-05-23T04:27:05.405Z,40.00
2018-05-23T04:28:10.313Z,40.00
2018-05-23T04:29:15.119Z,40.00
2018-05-23T04:30:20.029Z,40.00
2018-05-23T04:31:24.832Z,40.00
2018-05-23T04:32:29.680Z,40.00
2018-05-23T04:33:34.775Z,40.10
2018-05-23T04:34:39.887Z,39.90
2018-05-23T04:35:44.769Z,39.90
2018-05-23T04:36:49.630Z,40.00
2018-05-23T04:37:54.818Z,40.00
2018-05-23T04:38:59.843Z,40.00
2018-05-23T04:40:05.013Z,40.00
2018-05-23T04:41:10.090Z,40.10
2018-05-23T04:42:15.053Z,40.00
2018-05-23T04:43:19.881Z,40.10
2018-05-23T04:44:24.672Z,40.00
2018-05-23T04:45:29.578Z,40.10
2018-05-23T04:46:34.294Z,40.10
2018-05-23T04:47:39.281Z,40.10
2018-05-23T04:48:44.130Z,40.00
2018-05-23T04:49:48.914Z,40.10
2018-05-23T04:50:53.599Z,40.10
2018-05-23T04:51:58.293Z,40.00
2018-05-23T04:53:03.177Z,40.10
2018-05-23T04:54:08.073Z,40.10
2018-05-23T04:55:13.054Z,40.10
2018-05-23T04:56:17.991Z,40.10
2018-05-23T04:57:22.710Z,40.10
2018-05-23T04:58:27.581Z,40.10
2018-05-23T04:59:32.827Z,40.10
2018-05-23T05:00:37.824Z,40.10
2018-05-23T05:01:42.849Z,40.10
2018-05-23T05:02:48.332Z,40.10
2018-05-23T05:03:53.324Z,40.10
2018-05-23T05:04:58.071Z,40.10
2018-05-23T05:06:03.041Z,40.20
2018-05-23T05:07:08.104Z,40.20
2018-05-23T05:08:12.777Z,40.30
2018-05-23T05:09:17.919Z,40.40
2018-05-23T05:10:23.001Z,40.30
2018-05-23T05:11:28.107Z,40.40
2018-05-23T05:12:33.040Z,40.40
2018-05-23T05:13:38.181Z,41.00
2018-05-23T05:14:43.214Z,40.40
2018-05-23T05:15:48.216Z,40.40
2018-05-23T05:16:53.057Z,40.40
2018-05-23T05:17:58.097Z,40.40
2018-05-23T05:19:03.047Z,40.70
2018-05-23T05:20:08.206Z,40.40
2018-05-23T05:21:13.229Z,40.40
2018-05-23T05:22:18.228Z,40.30
2018-05-23T05:23:24.290Z,40.30
2018-05-23T05:24:29.325Z,40.30
2018-05-23T05:25:34.420Z,40.30
2018-05-23T05:26:39.444Z,40.30
2018-05-23T05:27:44.672Z,40.20
2018-05-23T05:28:49.697Z,40.20
2018-05-23T05:29:55.417Z,40.20
2018-05-23T05:31:00.581Z,40.30
2018-05-23T05:32:06.021Z,40.20
2018-05-23T05:33:11.217Z,40.20
2018-05-23T05:34:17.878Z,40.10
2018-05-23T05:35:23.240Z,40.10
2018-05-23T05:36:28.035Z,40.10
2018-05-23T05:37:32.880Z,40.10
2018-05-23T05:38:38.138Z,40.10
2018-05-23T05:39:43.256Z,40.10
2018-05-23T05:40:48.424Z,40.00
2018-05-23T05:41:53.249Z,40.10
2018-05-23T05:42:58.254Z,40.10
2018-05-23T05:44:03.557Z,40.10
2018-05-23T05:45:08.714Z,40.00
2018-05-23T05:46:13.906Z,40.00
2018-05-23T05:47:18.917Z,40.10
2018-05-23T05:48:23.858Z,40.00
2018-05-23T05:49:29.021Z,40.10
2018-05-23T05:50:34.274Z,40.00
2018-05-23T05:51:39.346Z,40.00
2018-05-23T05:52:44.353Z,40.00
2018-05-23T05:53:50.208Z,40.00
2018-05-23T05:54:55.137Z,40.00
2018-05-23T05:56:00.187Z,40.00
2018-05-23T05:57:05.224Z,40.70
2018-05-23T05:58:10.513Z,40.00
2018-05-23T05:59:16.133Z,40.00
2018-05-23T06:00:21.095Z,40.00
2018-05-23T06:01:25.815Z,40.00
2018-05-23T06:02:30.889Z,39.90
2018-05-23T06:03:35.994Z,40.00
2018-05-23T06:04:40.934Z,40.10
2018-05-23T06:05:45.961Z,40.10
2018-05-23T06:06:50.852Z,40.10
2018-05-23T06:07:55.891Z,40.10
2018-05-23T06:09:00.819Z,40.10
2018-05-23T06:10:05.800Z,40.20
2018-05-23T06:11:11.304Z,40.20
2018-05-23T06:12:16.210Z,40.20
2018-05-23T06:13:21.390Z,40.30
2018-05-23T06:14:26.282Z,40.30
2018-05-23T06:15:31.283Z,40.30
2018-05-23T06:16:36.328Z,40.30
2018-05-23T06:17:41.309Z,40.30
2018-05-23T06:18:46.264Z,40.30
2018-05-23T06:19:51.407Z,40.20
2018-05-23T06:20:57.794Z,40.90
2018-05-23T06:22:02.874Z,40.20
2018-05-23T06:23:07.911Z,40.20
2018-05-23T06:24:12.980Z,40.30
2018-05-23T06:25:17.902Z,40.20
2018-05-23T06:26:22.833Z,40.20
2018-05-23T06:27:27.530Z,40.20
2018-05-23T06:28:32.324Z,40.20
2018-05-23T06:29:37.282Z,40.20
2018-05-23T06:30:42.131Z,40.20
2018-05-23T06:31:47.004Z,40.30
2018-05-23T06:32:51.899Z,40.30
2018-05-23T06:33:56.748Z,40.30
2018-05-23T06:35:01.703Z,40.20
2018-05-23T06:36:06.764Z,40.30
2018-05-23T06:37:11.489Z,40.30
2018-05-23T06:38:16.615Z,40.20
2018-05-23T06:39:21.706Z,40.20
2018-05-23T06:40:26.593Z,40.20
2018-05-23T06:41:31.694Z,40.20
2018-05-23T06:42:36.638Z,40.10
2018-05-23T06:43:41.625Z,40.00
2018-05-23T06:44:46.553Z,40.10
2018-05-23T06:45:51.441Z,40.00
2018-05-23T06:46:56.401Z,40.00
2018-05-23T06:48:01.426Z,40.00
2018-05-23T06:49:06.254Z,39.90
2018-05-23T06:50:11.156Z,40.00
2018-05-23T06:51:16.290Z,39.80
2018-05-23T06:52:21.286Z,39.80
2018-05-23T06:53:26.988Z,39.80
2018-05-23T06:54:31.886Z,39.90
2018-05-23T06:55:36.954Z,39.80
2018-05-23T06:56:42.069Z,39.80
2018-05-23T06:57:47.111Z,39.80
2018-05-23T06:58:52.058Z,39.80
2018-05-23T06:59:57.235Z,39.70
2018-05-23T07:01:02.114Z,39.60
2018-05-23T07:02:07.092Z,39.60
2018-05-23T07:03:12.025Z,39.60
2018-05-23T07:04:17.895Z,39.50
2018-05-23T07:05:22.784Z,39.50
2018-05-23T07:06:27.437Z,39.40
2018-05-23T07:07:32.312Z,39.40
2018-05-23T07:08:37.145Z,39.40
2018-05-23T07:09:42.086Z,39.40
2018-05-23T07:10:47.202Z,39.40
2018-05-23T07:11:52.254Z,39.40
2018-05-23T07:12:57.142Z,39.30
2018-05-23T07:14:01.932Z,39.30
2018-05-23T07:15:06.992Z,39.40
2018-05-23T07:16:11.919Z,39.50
2018-05-23T07:17:18.159Z,39.50
2018-05-23T07:18:23.100Z,39.60
2018-05-23T07:19:27.813Z,39.60
2018-05-23T07:20:32.640Z,39.60
2018-05-23T07:21:37.382Z,39.70
2018-05-23T07:22:42.196Z,39.60
2018-05-23T07:23:47.144Z,39.80
2018-05-23T07:24:51.921Z,39.60
2018-05-23T07:25:57.083Z,39.70
2018-05-23T07:27:01.982Z,39.60
2018-05-23T07:28:07.181Z,39.70
2018-05-23T07:29:12.030Z,39.70
2018-05-23T07:30:16.886Z,39.80
2018-05-23T07:31:21.742Z,39.80
2018-05-23T07:32:26.498Z,39.70
2018-05-23T07:33:31.225Z,39.80
2018-05-23T07:34:36.143Z,39.80
2018-05-23T07:35:41.138Z,39.80
2018-05-23T07:36:46.065Z,39.80
2018-05-23T07:37:51.017Z,39.80
2018-05-23T07:38:56.998Z,39.80
2018-05-23T07:40:01.907Z,39.90
2018-05-23T07:41:06.898Z,39.90
2018-05-23T07:42:11.711Z,39.90
2018-05-23T07:43:16.583Z,39.90
2018-05-23T07:44:21.387Z,39.80
2018-05-23T07:45:26.331Z,39.80
2018-05-23T07:46:31.227Z,39.80
2018-05-23T07:47:36.004Z,39.80
2018-05-23T07:48:41.027Z,39.90
2018-05-23T07:49:45.872Z,39.90
2018-05-23T07:50:50.794Z,39.90
2018-05-23T07:51:55.398Z,39.80
2018-05-23T07:53:00.454Z,39.90
2018-05-23T07:54:05.415Z,39.90
2018-05-23T07:55:10.224Z,39.80
2018-05-23T07:56:15.368Z,39.90
2018-05-23T07:57:20.449Z,39.80
2018-05-23T07:58:25.312Z,39.70
2018-05-23T07:59:30.249Z,39.90
2018-05-23T08:00:35.214Z,39.90
2018-05-23T08:01:40.269Z,39.90
2018-05-23T08:02:45.235Z,39.90
2018-05-23T08:03:50.021Z,39.90
2018-05-23T08:04:55.114Z,40.00
2018-05-23T08:05:59.953Z,39.90
2018-05-23T08:07:04.716Z,39.90
2018-05-23T08:08:09.697Z,39.90
2018-05-23T08:09:14.763Z,39.90
2018-05-23T08:10:19.730Z,39.90
2018-05-23T08:11:24.685Z,39.90
2018-05-23T08:12:29.324Z,39.90
2018-05-23T08:13:34.312Z,39.90
2018-05-23T08:14:39.258Z,39.90
2018-05-23T08:15:44.330Z,39.90
2018-05-23T08:16:49.347Z,39.90
2018-05-23T08:17:54.389Z,39.90
2018-05-23T08:19:00.280Z,39.90
2018-05-23T08:20:05.300Z,39.90
2018-05-23T08:21:10.111Z,39.90
2018-05-23T08:22:15.055Z,39.90
2018-05-23T08:23:19.882Z,39.90
2018-05-23T08:24:24.572Z,39.90
2018-05-23T08:25:29.514Z,40.00
2018-05-23T08:26:34.345Z,39.90
2018-05-23T08:27:39.406Z,40.00
2018-05-23T08:28:44.426Z,40.00
2018-05-23T08:29:49.430Z,40.00
2018-05-23T08:30:54.443Z,40.00
2018-05-23T08:31:59.286Z,39.90
2018-05-23T08:33:04.029Z,40.00
2018-05-23T08:34:08.994Z,40.00
2018-05-23T08:35:13.733Z,39.90
2018-05-23T08:36:18.612Z,39.90
2018-05-23T08:37:23.358Z,39.90
2018-05-23T08:38:28.344Z,39.90
2018-05-23T08:39:33.175Z,39.90
2018-05-23T08:40:38.249Z,39.90
2018-05-23T08:41:42.975Z,39.90
2018-05-23T08:42:59.691Z,39.90
2018-05-23T08:44:04.583Z,39.90
2018-05-23T08:45:09.402Z,40.00
2018-05-23T08:46:14.424Z,40.00
2018-05-23T08:47:19.421Z,39.90
2018-05-23T08:48:24.273Z,39.90
2018-05-23T08:49:29.360Z,39.90
2018-05-23T08:50:34.068Z,39.90
2018-05-23T08:51:38.958Z,39.90
2018-05-23T08:52:44.019Z,39.80
2018-05-23T08:53:48.786Z,39.80
2018-05-23T08:54:53.665Z,39.80
2018-05-23T08:55:58.524Z,39.90
2018-05-23T08:57:03.600Z,39.80
2018-05-23T08:58:08.571Z,40.50
2018-05-23T08:59:13.562Z,39.80
2018-05-23T09:00:18.139Z,39.80
2018-05-23T09:01:22.975Z,39.90
2018-05-23T09:02:27.833Z,39.90
2018-05-23T09:03:32.919Z,39.80
2018-05-23T09:04:37.672Z,39.80
2018-05-23T09:05:42.566Z,39.90
2018-05-23T09:06:47.580Z,39.80
2018-05-23T09:07:52.516Z,39.80
2018-05-23T09:08:57.602Z,39.80
2018-05-23T09:10:02.649Z,39.80
2018-05-23T09:11:07.711Z,39.70
2018-05-23T09:12:12.748Z,39.70
2018-05-23T09:13:17.461Z,39.60
2018-05-23T09:14:22.534Z,39.70
2018-05-23T09:15:27.555Z,39.70
2018-05-23T09:16:32.346Z,39.60
2018-05-23T09:17:37.348Z,39.70
2018-05-23T09:18:42.334Z,39.70
2018-05-23T09:19:47.214Z,39.60
2018-05-23T09:20:52.093Z,39.60
2018-05-23T09:21:56.974Z,39.60
2018-05-23T09:23:01.820Z,39.60
2018-05-23T09:24:07.017Z,39.60
2018-05-23T09:25:12.003Z,39.70
2018-05-23T09:26:16.924Z,39.60
2018-05-23T09:27:21.882Z,39.60
2018-05-23T09:28:26.857Z,39.70
2018-05-23T09:29:31.927Z,39.60
2018-05-23T09:30:36.858Z,39.60
2018-05-23T09:31:41.528Z,39.60
2018-05-23T09:32:46.487Z,39.70
2018-05-23T09:33:51.414Z,39.60
2018-05-23T09:34:56.410Z,39.50
2018-05-23T09:36:01.355Z,39.60
2018-05-23T09:37:06.284Z,39.50
2018-05-23T09:38:11.016Z,39.60
2018-05-23T09:39:15.897Z,39.60
2018-05-23T09:40:20.787Z,39.70
2018-05-23T09:41:25.649Z,39.60
2018-05-23T09:42:30.727Z,39.40
2018-05-23T09:43:35.576Z,39.50
2018-05-23T09:44:40.478Z,39.50
2018-05-23T09:45:45.591Z,39.60
2018-05-23T09:46:51.252Z,39.60
2018-05-23T09:47:56.117Z,39.50
2018-05-23T09:49:00.714Z,39.40
2018-05-23T09:50:05.536Z,39.50
2018-05-23T09:51:10.564Z,39.50
2018-05-23T09:52:15.600Z,39.50
2018-05-23T09:53:20.616Z,39.40
2018-05-23T09:54:25.732Z,39.50
2018-05-23T09:55:30.661Z,39.50
2018-05-23T09:56:35.422Z,39.50
2018-05-23T09:57:40.551Z,39.40
2018-05-23T09:58:45.380Z,40.10
2018-05-23T09:59:50.205Z,39.40
2018-05-23T10:00:55.024Z,39.40
2018-05-23T10:01:59.948Z,39.40
2018-05-23T10:03:04.810Z,39.40
2018-05-23T10:04:09.829Z,39.40
2018-05-23T10:05:14.658Z,39.40
2018-05-23T10:06:19.644Z,39.40
2018-05-23T10:07:25.183Z,39.40
2018-05-23T10:08:30.396Z,39.30
2018-05-23T10:09:35.117Z,39.40
2018-05-23T10:10:40.082Z,39.30
2018-05-23T10:11:44.984Z,39.40
2018-05-23T10:12:49.882Z,39.40
2018-05-23T10:13:54.872Z,39.40
2018-05-23T10:14:59.722Z,39.40
2018-05-23T10:16:04.625Z,39.30
2018-05-23T10:17:09.596Z,39.40
2018-05-23T10:18:14.550Z,39.30
2018-05-23T10:19:19.464Z,39.40
2018-05-23T10:20:24.377Z,39.30
2018-05-23T10:21:29.167Z,39.30
2018-05-23T10:22:33.997Z,39.30
2018-05-23T10:23:39.083Z,39.40
2018-05-23T10:24:43.883Z,39.30
2018-05-23T10:25:48.957Z,39.40
2018-05-23T10:26:54.069Z,39.40
2018-05-23T10:27:58.859Z,39.30
2018-05-23T10:29:03.865Z,39.40
2018-05-23T10:30:08.741Z,39.30
2018-05-23T10:31:13.851Z,39.30
2018-05-23T10:32:18.897Z,39.40
2018-05-23T10:33:23.597Z,39.30
2018-05-23T10:34:28.488Z,39.30
2018-05-23T10:35:33.200Z,39.20
2018-05-23T10:36:38.100Z,39.20
2018-05-23T10:37:43.102Z,39.20
2018-05-23T10:38:47.965Z,39.20
2018-05-23T10:39:53.041Z,39.20
2018-05-23T10:40:57.951Z,39.20
2018-05-23T10:42:02.868Z,39.10
2018-05-23T10:43:07.775Z,39.10
2018-05-23T10:44:12.558Z,39.20
2018-05-23T10:45:17.318Z,39.20
2018-05-23T10:46:22.191Z,39.20
2018-05-23T10:47:26.981Z,39.10
2018-05-23T10:48:32.013Z,39.20
2018-05-23T10:49:37.060Z,39.20
2018-05-23T10:50:42.086Z,39.20
2018-05-23T10:51:46.952Z,39.20
2018-05-23T10:52:51.795Z,39.20
2018-05-23T10:53:56.849Z,39.20
2018-05-23T10:55:01.896Z,39.20
2018-05-23T10:56:06.960Z,39.20
2018-05-23T10:57:11.832Z,39.20
2018-05-23T10:58:16.515Z,39.20
2018-05-23T10:59:21.488Z,39.20
2018-05-23T11:00:26.273Z,39.10
2018-05-23T11:01:31.345Z,39.20
2018-05-23T11:02:36.190Z,39.20
2018-05-23T11:03:41.384Z,39.20
2018-05-23T11:04:46.355Z,39.20
2018-05-23T11:05:51.463Z,39.10
2018-05-23T11:06:56.269Z,39.20
2018-05-23T11:08:00.898Z,39.10
2018-05-23T11:09:06.111Z,39.10
2018-05-23T11:10:11.016Z,39.20
2018-05-23T11:11:16.014Z,39.10
2018-05-23T11:12:21.025Z,39.20
2018-05-23T11:13:25.703Z,39.10
2018-05-23T11:14:30.572Z,39.10
2018-05-23T11:15:35.352Z,39.10
2018-05-23T11:16:40.348Z,39.10
2018-05-23T11:17:45.213Z,39.10
2018-05-23T11:18:50.097Z,39.10
2018-05-23T11:19:55.253Z,39.10
2018-05-23T11:21:00.072Z,39.10
2018-05-23T11:22:05.272Z,39.10
2018-05-23T11:23:10.345Z,39.10
2018-05-23T11:24:15.135Z,39.10
2018-05-23T11:25:20.173Z,39.10
2018-05-23T11:26:25.177Z,39.10
2018-05-23T11:27:30.861Z,39.10
2018-05-23T11:28:35.783Z,39.10
2018-05-23T11:29:40.914Z,39.10
2018-05-23T11:30:45.871Z,39.10
2018-05-23T11:31:50.894Z,39.10
2018-05-23T11:32:55.734Z,39.10
2018-05-23T11:34:00.568Z,39.10
2018-05-23T11:35:05.291Z,39.00
2018-05-23T11:36:10.210Z,39.00
2018-05-23T11:37:15.105Z,39.00
2018-05-23T11:38:19.935Z,39.00
2018-05-23T11:39:24.780Z,39.00
2018-05-23T11:40:29.543Z,39.00
2018-05-23T11:41:34.505Z,39.10
2018-05-23T11:42:39.498Z,39.00
2018-05-23T11:43:44.436Z,39.10
2018-05-23T11:44:49.487Z,39.00
2018-05-23T11:45:54.628Z,39.10
2018-05-23T11:46:59.520Z,39.00
2018-05-23T11:48:04.337Z,39.00
2018-05-23T11:49:09.122Z,39.00
2018-05-23T11:50:13.888Z,39.00
2018-05-23T11:51:18.778Z,39.00
2018-05-23T11:52:23.756Z,39.70
2018-05-23T11:53:28.585Z,39.00
2018-05-23T11:54:33.574Z,39.00
2018-05-23T11:55:38.563Z,39.00
2018-05-23T11:56:43.480Z,39.00
2018-05-23T11:57:48.433Z,39.00
2018-05-23T11:58:53.528Z,39.00
2018-05-23T11:59:58.614Z,39.00
2018-05-23T12:01:03.521Z,39.00
2018-05-23T12:02:08.642Z,38.90
2018-05-23T12:03:13.525Z,39.00
2018-05-23T12:04:18.534Z,39.00
2018-05-23T12:05:23.802Z,38.90
2018-05-23T12:06:28.644Z,38.90
2018-05-23T12:07:33.718Z,38.90
2018-05-23T12:08:38.801Z,38.90
2018-05-23T12:09:43.892Z,38.90
2018-05-23T12:10:49.137Z,38.90
2018-05-23T12:11:54.403Z,38.90
2018-05-23T12:12:59.379Z,38.80
2018-05-23T12:14:04.623Z,38.80
2018-05-23T12:15:09.580Z,38.80
2018-05-23T12:16:14.566Z,38.80
2018-05-23T12:17:19.328Z,38.80
2018-05-23T12:18:23.989Z,38.80
2018-05-23T12:19:28.814Z,38.70
2018-05-23T12:20:33.707Z,38.70
2018-05-23T12:21:38.337Z,38.80
2018-05-23T12:22:43.191Z,38.70
2018-05-23T12:23:48.205Z,38.70
2018-05-23T12:24:53.267Z,38.80
2018-05-23T12:25:58.033Z,38.70
2018-05-23T12:27:02.646Z,38.70
2018-05-23T12:28:07.496Z,38.80
2018-05-23T12:29:12.721Z,38.70
2018-05-23T12:30:17.579Z,38.70
2018-05-23T12:31:22.233Z,38.80
2018-05-23T12:32:27.261Z,38.70
2018-05-23T12:33:32.167Z,38.80
2018-05-23T12:34:37.121Z,38.80
2018-05-23T12:35:41.952Z,38.70
2018-05-23T12:36:46.727Z,38.80
2018-05-23T12:37:51.625Z,38.70
2018-05-23T12:38:56.687Z,38.70
2018-05-23T12:40:01.511Z,38.70
2018-05-23T12:41:06.661Z,38.80
2018-05-23T12:42:11.564Z,38.80
2018-05-23T12:43:16.424Z,38.80
2018-05-23T12:44:21.039Z,38.80
2018-05-23T12:45:26.299Z,38.80
2018-05-23T12:46:31.608Z,38.70
2018-05-23T12:47:36.640Z,38.70
2018-05-23T12:48:41.723Z,38.70
2018-05-23T12:49:46.822Z,38.70
2018-05-23T12:50:51.983Z,38.70
2018-05-23T12:51:56.986Z,38.70
2018-05-23T12:53:02.169Z,38.70
2018-05-23T12:54:07.111Z,38.70
2018-05-23T12:55:11.852Z,38.70
2018-05-23T12:56:16.894Z,38.70
2018-05-23T12:57:21.894Z,38.70
2018-05-23T12:58:26.864Z,38.70
2018-05-23T12:59:31.808Z,38.70
2018-05-23T13:00:36.847Z,38.70
2018-05-23T13:01:41.787Z,38.80
2018-05-23T13:02:46.723Z,38.70
2018-05-23T13:03:51.629Z,38.70
2018-05-23T13:04:56.654Z,39.50
2018-05-23T13:06:01.675Z,38.80
2018-05-23T13:07:06.790Z,38.80
2018-05-23T13:08:11.448Z,38.80
2018-05-23T13:09:16.427Z,38.70
2018-05-23T13:10:21.102Z,38.80
2018-05-23T13:11:25.993Z,38.70
2018-05-23T13:12:31.109Z,38.80
2018-05-23T13:13:35.759Z,38.80
2018-05-23T13:14:40.739Z,38.80
2018-05-23T13:15:45.678Z,38.80
2018-05-23T13:16:50.548Z,38.80
2018-05-23T13:17:55.567Z,38.80
2018-05-23T13:19:00.163Z,38.80
2018-05-23T13:20:05.227Z,38.90
2018-05-23T13:21:09.873Z,38.80
2018-05-23T13:22:14.584Z,38.90
2018-05-23T13:23:19.238Z,38.90
2018-05-23T13:24:24.380Z,38.80
2018-05-23T13:25:29.358Z,38.90
2018-05-23T13:26:34.265Z,38.80
2018-05-23T13:27:39.102Z,38.80
2018-05-23T13:28:43.873Z,38.90
2018-05-23T13:29:48.500Z,38.90
2018-05-23T13:30:53.705Z,38.90
2018-05-23T13:31:58.630Z,38.90
2018-05-23T13:33:03.727Z,38.90
2018-05-23T13:34:08.753Z,39.00
2018-05-23T13:35:13.566Z,39.00
2018-05-23T13:36:18.217Z,38.90
2018-05-23T13:37:23.248Z,39.00
2018-05-23T13:38:28.248Z,39.00
2018-05-23T13:39:33.217Z,39.00
2018-05-23T13:40:38.093Z,38.90
2018-05-23T13:41:43.159Z,39.00
2018-05-23T13:42:48.177Z,39.00
2018-05-23T13:43:52.955Z,39.00
2018-05-23T13:44:57.827Z,39.10
2018-05-23T13:46:02.757Z,39.10
2018-05-23T13:47:07.588Z,39.10
2018-05-23T13:48:12.590Z,39.10
2018-05-23T13:49:17.512Z,39.00
2018-05-23T13:50:22.256Z,39.20
2018-05-23T13:51:27.035Z,39.10
2018-05-23T13:52:32.019Z,39.10
2018-05-23T13:53:37.233Z,39.10
2018-05-23T13:54:42.295Z,39.10
2018-05-23T13:55:47.208Z,39.10
2018-05-23T13:56:52.050Z,39.10